Time;durP1;ratioP1;P1;durP2;ratioP2;P2;SDS_P1;SDS_P2;PMS_P1;PMS_P2;Temp;Humidity;BMP_temperature;BMP_pressure;BME280_temperature;BME280_humidity;BME280_pressure;Samples;Min_cycle;Max_cycle;Signal;HPM_P1;HPM_P2
2022/11/19 00:02:21;;;;;;;5.80;4.43;;;;;;;;;;5113912;28;20650;-78
2022/11/19 00:04:48;;;;;;;7.23;6.63;;;;;;;;;;5113106;28;20206;-77
2022/11/19 00:07:15;;;;;;;6.27;5.07;;;;;;;;;;5114063;28;20208;-77
2022/11/19 00:09:42;;;;;;;5.67;5.10;;;;;;;;;;5113735;28;20206;-78
2022/11/19 00:14:55;;;;;;;4.40;4.00;;;;;;;;;;5113533;28;20298;-78
2022/11/19 00:17:22;;;;;;;8.67;4.97;;;;;;;;;;5113472;28;20191;-78
2022/11/19 00:19:49;;;;;;;6.17;4.60;;;;;;;;;;5113598;28;20203;-77
2022/11/19 00:22:16;;;;;;;5.70;5.10;;;;;;;;;;5113157;28;20199;-78
2022/11/19 00:24:42;;;;;;;6.63;5.47;;;;;;;;;;5113522;28;20212;-77
2022/11/19 00:27:09;;;;;;;5.70;4.70;;;;;;;;;;5113649;28;20202;-77
2022/11/19 00:29:36;;;;;;;6.07;4.80;;;;;;;;;;5112606;28;20231;-78
2022/11/19 00:32:04;;;;;;;9.67;4.87;;;;;;;;;;5113617;28;20260;-77
2022/11/19 00:34:31;;;;;;;5.63;4.13;;;;;;;;;;5113017;28;20207;-78
2022/11/19 00:36:58;;;;;;;5.90;3.57;;;;;;;;;;5113014;28;20207;-77
2022/11/19 00:39:25;;;;;;;8.30;4.70;;;;;;;;;;5113216;28;20210;-77
2022/11/19 00:41:51;;;;;;;9.30;4.37;;;;;;;;;;5112482;28;20558;-77
2022/11/19 00:44:18;;;;;;;5.13;4.33;;;;;;;;;;5112564;28;20206;-77
2022/11/19 00:46:45;;;;;;;5.63;4.43;;;;;;;;;;5112696;28;20205;-77
2022/11/19 00:49:13;;;;;;;5.77;4.87;;;;;;;;;;5112959;28;20222;-77
2022/11/19 00:51:40;;;;;;;4.80;4.30;;;;;;;;;;5112888;28;20203;-77
2022/11/19 00:54:06;;;;;;;7.33;4.63;;;;;;;;;;5112560;28;20210;-77
2022/11/19 00:56:33;;;;;;;4.47;4.07;;;;;;;;;;5112393;28;20199;-78
2022/11/19 00:59:00;;;;;;;6.13;3.87;;;;;;;;;;5112452;28;20200;-77
2022/11/19 01:01:27;;;;;;;4.10;3.70;;;;;;;;;;5111621;28;20708;-77
2022/11/19 01:03:54;;;;;;;5.10;4.17;;;;;;;;;;5112276;28;20214;-77
2022/11/19 01:06:25;;;;;;;6.47;4.53;;;;;;;;;;5112518;28;20202;-77
2022/11/19 01:08:53;;;;;;;4.80;4.40;;;;;;;;;;5112491;28;20253;-77
2022/11/19 01:11:21;;;;;;;5.60;4.40;;;;;;;;;;5112163;28;20734;-77
2022/11/19 01:13:48;;;;;;;4.53;4.10;;;;;;;;;;5112423;28;20211;-77
2022/11/19 01:16:16;;;;;;;4.37;3.83;;;;;;;;;;5112013;28;20210;-77
2022/11/19 01:18:45;;;;;;;6.00;4.03;;;;;;;;;;5112709;28;20207;-77
2022/11/19 01:21:12;;;;;;;7.10;4.77;;;;;;;;;;5111666;28;20236;-77
2022/11/19 01:23:42;;;;;;;4.73;4.23;;;;;;;;;;5112103;28;20248;-77
2022/11/19 01:26:09;;;;;;;5.23;4.50;;;;;;;;;;5111828;28;20207;-76
2022/11/19 01:28:36;;;;;;;4.43;4.03;;;;;;;;;;5111947;28;20223;-76
2022/11/19 01:31:07;;;;;;;5.43;4.90;;;;;;;;;;5111774;28;20210;-76
2022/11/19 01:33:34;;;;;;;4.43;3.87;;;;;;;;;;5111660;28;20289;-76
2022/11/19 01:36:02;;;;;;;5.03;3.90;;;;;;;;;;5111768;28;20222;-77
2022/11/19 01:38:30;;;;;;;6.77;4.40;;;;;;;;;;5111545;28;20199;-77
2022/11/19 01:40:58;;;;;;;4.77;4.30;;;;;;;;;;5111440;28;20682;-76
2022/11/19 01:43:50;;;;;;;7.23;6.50;;;;;;;;;;5111628;28;20199;-76
2022/11/19 01:46:18;;;;;;;6.67;6.03;;;;;;;;;;5091459;28;20195;-77
2022/11/19 01:48:47;;;;;;;7.37;6.30;;;;;;;;;;5111481;28;20226;-78
2022/11/19 01:51:16;;;;;;;6.33;5.30;;;;;;;;;;5111571;28;20202;-77
2022/11/19 01:53:44;;;;;;;9.80;8.80;;;;;;;;;;5112146;28;20203;-76
2022/11/19 01:56:12;;;;;;;10.83;9.50;;;;;;;;;;5111384;28;20592;-76
2022/11/19 01:58:42;;;;;;;12.23;9.80;;;;;;;;;;5111275;28;20207;-78
2022/11/19 02:01:10;;;;;;;11.37;9.87;;;;;;;;;;5111230;28;20597;-80
2022/11/19 02:03:38;;;;;;;13.80;9.47;;;;;;;;;;5111235;28;20210;-77
2022/11/19 02:06:05;;;;;;;11.73;9.20;;;;;;;;;;5111071;28;20206;-77
2022/11/19 02:08:40;;;;;;;10.67;9.53;;;;;;;;;;5111678;28;20226;-76
2022/11/19 02:11:34;;;;;;;11.80;9.53;;;;;;;;;;5111274;28;20199;-77
2022/11/19 02:14:11;;;;;;;10.43;9.30;;;;;;;;;;5110595;28;20210;-77
2022/11/19 02:16:46;;;;;;;8.70;7.87;;;;;;;;;;5111247;28;20219;-77
2022/11/19 02:19:27;;;;;;;10.00;8.87;;;;;;;;;;5111096;28;20644;-77
2022/11/19 02:22:01;;;;;;;9.00;8.13;;;;;;;;;;5111353;28;20592;-77
2022/11/19 02:24:47;;;;;;;9.03;8.20;;;;;;;;;;5110230;28;20209;-77
2022/11/19 02:27:59;;;;;;;12.03;9.00;;;;;;;;;;5111094;28;20712;-77
2022/11/19 02:30:29;;;;;;;10.13;8.90;;;;;;;;;;5110702;28;20722;-77
2022/11/19 02:32:59;;;;;;;9.80;8.37;;;;;;;;;;5110869;28;20206;-77
2022/11/19 02:35:34;;;;;;;10.77;9.67;;;;;;;;;;5110849;28;20207;-77
2022/11/19 02:38:05;;;;;;;9.90;8.90;;;;;;;;;;5110944;28;20205;-76
2022/11/19 02:40:37;;;;;;;10.20;9.20;;;;;;;;;;5111127;28;20199;-77
2022/11/19 02:43:09;;;;;;;8.80;7.50;;;;;;;;;;5110552;28;20210;-77
2022/11/19 02:45:39;;;;;;;12.70;9.17;;;;;;;;;;5110884;28;20203;-77
2022/11/19 02:48:10;;;;;;;13.67;8.73;;;;;;;;;;5110708;28;20213;-77
2022/11/19 02:50:40;;;;;;;10.67;9.07;;;;;;;;;;5110358;28;20672;-76
2022/11/19 02:53:07;;;;;;;9.20;7.77;;;;;;;;;;5111151;28;20195;-77
2022/11/19 02:55:35;;;;;;;11.93;8.90;;;;;;;;;;5110118;28;20199;-77
2022/11/19 02:58:07;;;;;;;9.23;8.10;;;;;;;;;;5093032;28;20214;-77
2022/11/19 03:06:33;;;;;;;9.70;8.60;;;;;;;;;;5047873;28;20652;-77
2022/11/19 03:09:00;;;;;;;8.57;7.73;;;;;;;;;;5038708;28;20233;-77
2022/11/19 03:11:28;;;;;;;11.40;8.50;;;;;;;;;;5055658;28;20210;-77
2022/11/19 03:16:50;;;;;;;8.13;7.33;;;;;;;;;;5099455;28;20638;-77
2022/11/19 03:19:33;;;;;;;7.47;6.63;;;;;;;;;;5106461;28;20205;-77
2022/11/19 03:22:05;;;;;;;5.47;4.90;;;;;;;;;;5098052;28;20583;-78
2022/11/19 03:24:35;;;;;;;6.47;5.80;;;;;;;;;;5098722;28;20210;-79
2022/11/19 03:27:06;;;;;;;8.50;7.33;;;;;;;;;;5093818;28;20200;-77
2022/11/19 03:29:35;;;;;;;7.27;6.57;;;;;;;;;;5093162;28;20224;-78
2022/11/19 03:32:07;;;;;;;9.13;8.23;;;;;;;;;;5095215;28;20200;-77
2022/11/19 03:34:34;;;;;;;8.20;7.37;;;;;;;;;;5093335;28;20279;-77
2022/11/19 03:37:03;;;;;;;7.97;6.60;;;;;;;;;;5093547;28;20193;-77
2022/11/19 03:39:29;;;;;;;7.17;6.47;;;;;;;;;;5092961;28;20204;-78
2022/11/19 03:41:57;;;;;;;6.67;6.00;;;;;;;;;;5103184;28;20209;-78
2022/11/19 03:44:27;;;;;;;6.43;5.80;;;;;;;;;;5114161;28;20753;-76
2022/11/19 03:46:58;;;;;;;6.57;5.87;;;;;;;;;;5114376;28;20203;-78
2022/11/19 03:49:30;;;;;;;5.50;5.00;;;;;;;;;;5113637;28;20219;-79
2022/11/19 03:52:01;;;;;;;6.33;4.60;;;;;;;;;;5113948;28;20264;-79
2022/11/19 03:54:28;;;;;;;5.87;5.00;;;;;;;;;;5113972;28;20206;-79
2022/11/19 03:56:56;;;;;;;5.70;4.30;;;;;;;;;;5114230;28;20214;-78
2022/11/19 03:59:23;;;;;;;5.20;4.77;;;;;;;;;;5114322;28;20213;-79
2022/11/19 04:01:50;;;;;;;5.57;4.97;;;;;;;;;;5108311;28;20231;-77
2022/11/19 04:04:36;;;;;;;12.57;7.23;;;;;;;;;;5112706;28;20201;-77
2022/11/19 04:07:09;;;;;;;6.83;6.13;;;;;;;;;;5113293;28;20207;-75
2022/11/19 04:09:36;;;;;;;10.87;8.17;;;;;;;;;;5111677;28;20318;-75
2022/11/19 04:12:03;;;;;;;10.67;6.43;;;;;;;;;;5113306;28;20203;-75
2022/11/19 04:14:30;;;;;;;8.30;6.27;;;;;;;;;;5113033;28;20199;-75
2022/11/19 04:16:57;;;;;;;7.17;6.03;;;;;;;;;;5112844;28;20254;-79
2022/11/19 04:19:24;;;;;;;7.37;5.23;;;;;;;;;;5113026;28;20586;-75
2022/11/19 04:21:51;;;;;;;5.17;4.67;;;;;;;;;;5113175;28;20237;-76
2022/11/19 04:24:19;;;;;;;5.27;4.77;;;;;;;;;;5112654;28;20753;-78
2022/11/19 04:26:46;;;;;;;7.50;5.87;;;;;;;;;;5112784;28;20748;-75
2022/11/19 04:29:12;;;;;;;8.37;7.03;;;;;;;;;;5112644;28;20233;-76
2022/11/19 04:31:39;;;;;;;4.37;3.97;;;;;;;;;;5112895;28;20200;-78
2022/11/19 04:34:06;;;;;;;4.27;3.73;;;;;;;;;;5112826;28;20252;-77
2022/11/19 04:36:33;;;;;;;4.30;3.90;;;;;;;;;;5111444;28;20211;-75
2022/11/19 04:39:00;;;;;;;4.83;4.03;;;;;;;;;;5112526;28;20210;-75
2022/11/19 04:41:28;;;;;;;4.63;4.30;;;;;;;;;;5111962;28;20206;-75
2022/11/19 04:43:55;;;;;;;13.53;10.93;;;;;;;;;;5112174;28;20210;-78
2022/11/19 04:46:22;;;;;;;25.73;21.80;;;;;;;;;;5107966;28;20199;-79
2022/11/19 04:48:48;;;;;;;20.13;17.40;;;;;;;;;;5110559;28;20593;-78
2022/11/19 04:51:15;;;;;;;10.67;9.53;;;;;;;;;;5103688;28;20199;-78
2022/11/19 04:53:42;;;;;;;8.40;7.60;;;;;;;;;;5112323;28;20222;-78
2022/11/19 04:56:09;;;;;;;5.40;4.87;;;;;;;;;;5112277;28;20207;-79
2022/11/19 04:58:37;;;;;;;28.40;24.23;;;;;;;;;;5111837;28;20556;-81
2022/11/19 05:01:04;;;;;;;21.17;19.00;;;;;;;;;;5111753;28;20235;-78
2022/11/19 05:03:31;;;;;;;16.87;15.13;;;;;;;;;;5110506;28;20200;-78
2022/11/19 05:05:58;;;;;;;9.93;8.60;;;;;;;;;;5112288;28;20214;-79
2022/11/19 05:08:25;;;;;;;8.90;7.90;;;;;;;;;;5112202;28;20207;-79
2022/11/19 05:10:52;;;;;;;7.80;7.00;;;;;;;;;;5112047;28;20230;-79
2022/11/19 05:13:19;;;;;;;6.40;5.40;;;;;;;;;;5111492;28;20666;-79
2022/11/19 05:15:47;;;;;;;5.60;5.10;;;;;;;;;;5111696;28;20210;-79
2022/11/19 05:18:14;;;;;;;6.33;5.27;;;;;;;;;;5112106;28;20200;-79
2022/11/19 05:20:41;;;;;;;5.30;4.80;;;;;;;;;;5105774;28;20207;-78
2022/11/19 05:23:08;;;;;;;7.77;7.07;;;;;;;;;;5104282;28;20215;-79
2022/11/19 05:25:34;;;;;;;7.20;6.37;;;;;;;;;;5111157;28;20195;-79
2022/11/19 05:28:01;;;;;;;7.50;6.73;;;;;;;;;;5112063;28;20701;-78
2022/11/19 05:30:28;;;;;;;7.50;6.80;;;;;;;;;;5111900;28;20229;-79
2022/11/19 05:32:58;;;;;;;7.33;6.03;;;;;;;;;;5111615;28;20199;-79
2022/11/19 05:35:25;;;;;;;6.80;6.20;;;;;;;;;;5111773;28;20203;-79
2022/11/19 05:37:52;;;;;;;12.70;10.87;;;;;;;;;;5112012;28;20199;-79
2022/11/19 05:40:19;;;;;;;11.57;10.53;;;;;;;;;;5111231;28;20192;-79
2022/11/19 05:42:46;;;;;;;18.40;16.53;;;;;;;;;;5111863;28;20192;-78
2022/11/19 05:45:13;;;;;;;10.60;9.53;;;;;;;;;;5111382;28;20202;-78
2022/11/19 05:47:39;;;;;;;12.40;10.67;;;;;;;;;;5111476;28;20560;-78
2022/11/19 05:50:09;;;;;;;12.03;10.57;;;;;;;;;;5110853;28;20230;-79
2022/11/19 05:52:36;;;;;;;9.07;6.60;;;;;;;;;;5110003;28;20204;-80
2022/11/19 05:55:04;;;;;;;8.43;7.70;;;;;;;;;;5110497;28;20599;-78
2022/11/19 05:57:35;;;;;;;7.57;6.87;;;;;;;;;;5110417;28;20220;-79
2022/11/19 06:00:02;;;;;;;7.97;6.30;;;;;;;;;;5110300;28;20195;-79
2022/11/19 06:02:28;;;;;;;5.30;4.80;;;;;;;;;;5110326;28;20239;-81
2022/11/19 06:04:55;;;;;;;9.87;6.90;;;;;;;;;;5110600;28;20207;-78
2022/11/19 06:07:23;;;;;;;22.17;16.20;;;;;;;;;;5111004;28;20204;-79
2022/11/19 06:09:50;;;;;;;23.93;19.50;;;;;;;;;;5111224;28;20223;-78
2022/11/19 06:12:17;;;;;;;10.57;9.00;;;;;;;;;;5111176;28;20206;-79
2022/11/19 06:14:44;;;;;;;9.80;6.97;;;;;;;;;;5110927;28;20208;-79
2022/11/19 06:17:11;;;;;;;6.33;5.70;;;;;;;;;;5111104;28;20205;-79
2022/11/19 06:19:37;;;;;;;9.00;7.00;;;;;;;;;;5110875;28;20257;-79
2022/11/19 06:22:04;;;;;;;8.93;8.00;;;;;;;;;;5111082;28;20203;-79
2022/11/19 06:24:33;;;;;;;10.10;9.03;;;;;;;;;;5110462;28;20370;-79
2022/11/19 06:27:01;;;;;;;10.97;8.23;;;;;;;;;;5111073;28;20623;-80
2022/11/19 06:29:28;;;;;;;6.50;5.90;;;;;;;;;;5109869;28;20230;-78
2022/11/19 06:31:55;;;;;;;5.73;5.23;;;;;;;;;;5108594;28;20222;-79
2022/11/19 06:34:22;;;;;;;5.67;5.07;;;;;;;;;;5100256;28;20206;-78
2022/11/19 06:36:48;;;;;;;6.53;5.80;;;;;;;;;;5096726;28;20222;-77
2022/11/19 06:39:15;;;;;;;5.73;5.20;;;;;;;;;;5100979;28;20207;-77
2022/11/19 06:41:43;;;;;;;5.90;5.30;;;;;;;;;;5110584;28;20689;-77
2022/11/19 06:44:10;;;;;;;5.27;4.77;;;;;;;;;;5108990;28;20191;-80
2022/11/19 06:46:37;;;;;;;6.70;5.67;;;;;;;;;;5108974;28;21065;-80
2022/11/19 06:49:04;;;;;;;5.93;4.83;;;;;;;;;;5102615;28;20236;-89
2022/11/19 06:51:34;;;;;;;8.73;6.30;;;;;;;;;;5100426;28;20231;-79
2022/11/19 06:54:01;;;;;;;10.50;8.83;;;;;;;;;;5110404;28;20206;-80
2022/11/19 06:56:28;;;;;;;13.90;12.37;;;;;;;;;;5110009;28;20568;-79
2022/11/19 06:58:58;;;;;;;11.57;10.47;;;;;;;;;;5110749;28;20566;-80
2022/11/19 07:01:24;;;;;;;10.67;9.17;;;;;;;;;;5109602;28;20692;-80
2022/11/19 07:03:51;;;;;;;8.13;7.37;;;;;;;;;;5114561;28;20222;-79
2022/11/19 07:06:18;;;;;;;7.50;6.80;;;;;;;;;;5114349;28;20206;-79
2022/11/19 07:08:45;;;;;;;8.00;7.20;;;;;;;;;;5114778;28;20203;-79
2022/11/19 07:11:26;;;;;;;7.93;6.30;;;;;;;;;;5112253;28;20234;-79
2022/11/19 07:13:57;;;;;;;6.90;6.27;;;;;;;;;;5112143;28;20207;-79
2022/11/19 07:16:26;;;;;;;6.57;5.87;;;;;;;;;;5101260;28;20203;-79
2022/11/19 07:18:54;;;;;;;9.90;8.90;;;;;;;;;;5099260;28;20196;-79
2022/11/19 07:21:21;;;;;;;8.00;7.23;;;;;;;;;;5108355;28;20210;-78
2022/11/19 07:23:47;;;;;;;7.47;6.70;;;;;;;;;;5098580;28;20601;-77
2022/11/19 07:26:14;;;;;;;9.30;8.30;;;;;;;;;;5093360;28;20192;-76
2022/11/19 07:28:41;;;;;;;8.37;7.63;;;;;;;;;;5112279;28;20207;-76
2022/11/19 07:31:08;;;;;;;11.03;9.07;;;;;;;;;;5114052;28;20223;-77
2022/11/19 07:33:38;;;;;;;8.37;7.57;;;;;;;;;;5110358;28;20218;-77
2022/11/19 07:36:06;;;;;;;8.17;6.70;;;;;;;;;;5108441;28;20200;-77
2022/11/19 07:38:33;;;;;;;7.90;7.03;;;;;;;;;;5108196;28;20204;-77
2022/11/19 07:40:59;;;;;;;8.37;6.90;;;;;;;;;;5103235;28;20196;-78
2022/11/19 07:43:25;;;;;;;7.77;6.97;;;;;;;;;;5109986;28;20589;-77
2022/11/19 07:45:52;;;;;;;8.77;7.87;;;;;;;;;;5109935;28;20200;-77
2022/11/19 07:48:20;;;;;;;11.63;8.00;;;;;;;;;;5113761;28;20278;-77
2022/11/19 07:50:51;;;;;;;8.80;7.70;;;;;;;;;;5113824;28;20231;-77
2022/11/19 07:53:18;;;;;;;8.67;7.60;;;;;;;;;;5113551;28;21232;-77
2022/11/19 07:55:46;;;;;;;9.07;7.63;;;;;;;;;;5113047;28;20631;-77
2022/11/19 07:58:14;;;;;;;7.73;6.93;;;;;;;;;;5099061;28;20329;-79
2022/11/19 08:00:41;;;;;;;8.70;7.33;;;;;;;;;;5113013;28;20284;-78
2022/11/19 08:03:10;;;;;;;11.30;7.50;;;;;;;;;;5114010;28;20727;-77
2022/11/19 08:05:39;;;;;;;33.33;22.57;;;;;;;;;;5112696;28;20293;-78
2022/11/19 08:08:07;;;;;;;30.63;20.50;;;;;;;;;;5113146;28;20213;-78
2022/11/19 08:10:35;;;;;;;10.43;9.23;;;;;;;;;;5112134;28;20583;-77
2022/11/19 08:13:05;;;;;;;10.40;8.33;;;;;;;;;;5112341;28;20209;-78
2022/11/19 08:15:32;;;;;;;8.33;7.50;;;;;;;;;;5113548;28;20209;-78
2022/11/19 08:18:11;;;;;;;9.03;8.13;;;;;;;;;;5113358;28;20213;-80
2022/11/19 08:20:38;;;;;;;6.20;5.67;;;;;;;;;;5113040;28;20191;-79
2022/11/19 08:23:05;;;;;;;4.87;4.37;;;;;;;;;;5112457;28;20217;-77
2022/11/19 08:25:35;;;;;;;4.90;4.40;;;;;;;;;;5111924;28;20259;-77
2022/11/19 08:28:03;;;;;;;6.50;4.80;;;;;;;;;;5109263;28;20198;-78
2022/11/19 08:30:30;;;;;;;6.17;4.73;;;;;;;;;;5112587;28;20219;-81
2022/11/19 08:32:57;;;;;;;7.00;5.33;;;;;;;;;;5112753;28;20206;-78
2022/11/19 08:35:25;;;;;;;7.37;4.20;;;;;;;;;;5111960;28;20673;-78
2022/11/19 08:37:51;;;;;;;5.07;4.30;;;;;;;;;;5112756;28;20642;-78
2022/11/19 08:40:18;;;;;;;4.30;3.87;;;;;;;;;;5111573;28;21032;-78
2022/11/19 08:43:01;;;;;;;6.10;5.50;;;;;;;;;;5113107;28;20203;-78
2022/11/19 08:45:30;;;;;;;4.47;4.07;;;;;;;;;;5099411;28;20325;-78
2022/11/19 08:47:58;;;;;;;5.33;4.07;;;;;;;;;;5111877;28;20203;-79
2022/11/19 08:50:25;;;;;;;6.97;6.30;;;;;;;;;;5112399;28;20219;-79
2022/11/19 08:52:56;;;;;;;8.33;6.13;;;;;;;;;;5110024;28;20754;-79
2022/11/19 08:55:23;;;;;;;3.17;2.93;;;;;;;;;;5110725;28;20207;-79
2022/11/19 08:57:52;;;;;;;3.63;3.00;;;;;;;;;;5097205;28;20245;-79
2022/11/19 09:00:20;;;;;;;4.63;3.40;;;;;;;;;;5112244;28;20208;-79
2022/11/19 09:02:47;;;;;;;8.40;5.40;;;;;;;;;;5112211;28;20327;-79
2022/11/19 09:05:14;;;;;;;4.60;4.20;;;;;;;;;;5112340;28;20694;-79
2022/11/19 09:07:40;;;;;;;6.23;5.60;;;;;;;;;;5112818;28;20279;-79
2022/11/19 09:10:08;;;;;;;14.53;12.57;;;;;;;;;;5111162;28;20203;-79
2022/11/19 09:12:35;;;;;;;15.33;12.47;;;;;;;;;;5112184;28;20210;-79
2022/11/19 09:15:04;;;;;;;8.20;7.07;;;;;;;;;;5109327;28;20210;-80
2022/11/19 09:17:31;;;;;;;7.57;5.10;;;;;;;;;;5112455;28;20187;-79
2022/11/19 09:19:58;;;;;;;3.93;3.30;;;;;;;;;;5106197;28;20206;-79
2022/11/19 09:22:25;;;;;;;8.83;5.83;;;;;;;;;;5105943;28;20578;-80
2022/11/19 09:24:51;;;;;;;5.83;4.00;;;;;;;;;;5107499;28;20800;-79
2022/11/19 09:27:18;;;;;;;3.00;2.80;;;;;;;;;;5110387;28;20196;-80
2022/11/19 09:29:46;;;;;;;3.90;3.17;;;;;;;;;;5108693;28;20215;-79
2022/11/19 09:32:14;;;;;;;3.33;3.03;;;;;;;;;;5111146;28;20242;-79
2022/11/19 09:34:41;;;;;;;4.53;3.60;;;;;;;;;;5109861;28;20196;-79
2022/11/19 09:37:07;;;;;;;3.47;3.07;;;;;;;;;;5110071;28;20214;-80
2022/11/19 09:39:34;;;;;;;3.10;2.53;;;;;;;;;;5107708;28;20197;-80
2022/11/19 09:42:12;;;;;;;2.83;2.63;;;;;;;;;;5101589;28;20200;-80
2022/11/19 09:45:11;;;;;;;3.33;2.60;;;;;;;;;;5096244;28;20207;-80
2022/11/19 09:47:53;;;;;;;5.07;3.13;;;;;;;;;;5104977;28;20204;-79
2022/11/19 09:50:23;;;;;;;6.97;4.07;;;;;;;;;;5105552;28;20826;-80
2022/11/19 09:52:54;;;;;;;7.70;6.90;;;;;;;;;;5111413;28;20206;-80
2022/11/19 09:55:28;;;;;;;2.57;2.33;;;;;;;;;;5108297;28;20570;-80
2022/11/19 09:57:56;;;;;;;3.00;2.73;;;;;;;;;;5110644;28;20195;-79
2022/11/19 10:00:28;;;;;;;3.07;2.37;;;;;;;;;;5109691;28;20204;-80
2022/11/19 10:02:57;;;;;;;2.83;2.17;;;;;;;;;;5109958;28;20246;-80
2022/11/19 10:05:30;;;;;;;4.37;2.70;;;;;;;;;;5109093;28;20206;-80
2022/11/19 10:08:03;;;;;;;2.67;2.27;;;;;;;;;;5106121;28;20202;-80
2022/11/19 10:10:37;;;;;;;3.10;2.77;;;;;;;;;;5107390;28;20646;-80
2022/11/19 10:13:16;;;;;;;3.37;2.80;;;;;;;;;;5102255;28;20204;-83
2022/11/19 10:15:54;;;;;;;2.67;2.30;;;;;;;;;;5108089;28;20214;-80
2022/11/19 10:18:29;;;;;;;11.10;3.57;;;;;;;;;;5107428;28;20255;-80
2022/11/19 10:21:01;;;;;;;2.97;2.63;;;;;;;;;;5111346;28;20210;-80
2022/11/19 10:23:53;;;;;;;7.20;4.27;;;;;;;;;;5105887;28;20594;-80
2022/11/19 10:26:27;;;;;;;2.87;2.67;;;;;;;;;;5095567;28;20582;-81
2022/11/19 10:28:56;;;;;;;4.93;3.40;;;;;;;;;;5108197;28;20340;-80
2022/11/19 10:31:29;;;;;;;4.47;2.50;;;;;;;;;;5107968;28;20234;-80
2022/11/19 10:34:03;;;;;;;4.90;2.73;;;;;;;;;;5095912;28;20203;-82
2022/11/19 10:36:34;;;;;;;2.93;2.73;;;;;;;;;;5107524;28;20198;-80
2022/11/19 10:39:03;;;;;;;5.37;2.90;;;;;;;;;;5105287;28;20204;-79
2022/11/19 10:41:36;;;;;;;3.63;3.00;;;;;;;;;;5103613;28;20197;-80
2022/11/19 10:47:17;;;;;;;3.97;3.57;;;;;;;;;;5105529;28;20254;-80
2022/11/19 10:49:45;;;;;;;4.33;3.37;;;;;;;;;;5108453;28;20238;-80
2022/11/19 10:52:23;;;;;;;5.27;2.67;;;;;;;;;;5106086;28;20219;-80
2022/11/19 10:54:51;;;;;;;2.90;2.50;;;;;;;;;;5106250;28;20241;-80
2022/11/19 10:57:18;;;;;;;3.43;2.50;;;;;;;;;;5108008;28;20199;-81
2022/11/19 10:59:46;;;;;;;3.40;3.10;;;;;;;;;;5097388;28;20203;-80
2022/11/19 11:02:22;;;;;;;2.70;2.50;;;;;;;;;;5101505;28;20224;-81
2022/11/19 11:05:09;;;;;;;11.03;8.80;;;;;;;;;;5107837;28;20202;-79
2022/11/19 11:07:47;;;;;;;7.03;6.10;;;;;;;;;;5110805;28;20207;-80
2022/11/19 11:10:29;;;;;;;4.90;3.17;;;;;;;;;;5098360;28;20199;-80
2022/11/19 11:15:45;;;;;;;4.13;3.60;;;;;;;;;;5107764;28;20336;-81
2022/11/19 11:18:13;;;;;;;3.53;3.23;;;;;;;;;;5110492;28;20620;-81
2022/11/19 11:20:46;;;;;;;3.57;3.00;;;;;;;;;;5109651;28;20200;-80
2022/11/19 11:23:15;;;;;;;8.53;6.60;;;;;;;;;;5108930;28;20592;-80
2022/11/19 11:25:51;;;;;;;8.80;7.90;;;;;;;;;;5107349;28;20196;-80
2022/11/19 11:28:20;;;;;;;5.20;4.37;;;;;;;;;;5110242;28;20233;-80
2022/11/19 11:30:52;;;;;;;6.90;4.30;;;;;;;;;;5109857;28;20203;-80
2022/11/19 11:33:27;;;;;;;2.50;2.30;;;;;;;;;;5109601;28;20723;-79
2022/11/19 11:35:57;;;;;;;4.97;4.43;;;;;;;;;;5106580;28;20198;-80
2022/11/19 11:38:26;;;;;;;5.43;4.40;;;;;;;;;;5103798;28;20195;-80
2022/11/19 11:40:59;;;;;;;5.27;3.33;;;;;;;;;;5109046;28;20746;-80
2022/11/19 11:43:26;;;;;;;4.47;3.73;;;;;;;;;;5108113;28;20200;-79
2022/11/19 11:45:56;;;;;;;6.10;3.67;;;;;;;;;;5109778;28;20203;-79
2022/11/19 11:48:23;;;;;;;3.80;3.40;;;;;;;;;;5110142;28;20287;-80
2022/11/19 11:50:50;;;;;;;5.70;3.20;;;;;;;;;;5102904;28;20594;-80
2022/11/19 11:53:28;;;;;;;4.23;3.83;;;;;;;;;;5113545;28;20199;-80
2022/11/19 11:55:57;;;;;;;4.03;3.60;;;;;;;;;;5102377;28;20381;-79
2022/11/19 11:58:27;;;;;;;4.77;2.83;;;;;;;;;;5105805;28;20355;-80
2022/11/19 12:01:12;;;;;;;3.30;3.10;;;;;;;;;;5107569;28;20199;-80
2022/11/19 12:03:52;;;;;;;4.27;3.30;;;;;;;;;;5110130;28;20206;-81
2022/11/19 12:06:20;;;;;;;2.63;2.43;;;;;;;;;;5095701;28;20192;-80
2022/11/19 12:08:55;;;;;;;12.87;3.50;;;;;;;;;;5094993;28;20696;-80
2022/11/19 12:11:52;;;;;;;3.07;2.77;;;;;;;;;;5112427;28;20222;-80
2022/11/19 12:14:16;;;;;;;3.43;2.63;;;;;;;;;;5092724;28;20204;-80
2022/11/19 12:16:50;;;;;;;5.23;3.87;;;;;;;;;;5104167;28;20191;-80
2022/11/19 12:19:45;;;;;;;11.97;10.23;;;;;;;;;;5106156;28;20203;-79
2022/11/19 12:22:18;;;;;;;17.47;8.83;;;;;;;;;;5089734;28;20201;-80
2022/11/19 12:25:00;;;;;;;5.00;4.37;;;;;;;;;;5099663;28;20230;-80
2022/11/19 12:27:31;;;;;;;4.60;3.90;;;;;;;;;;5100701;28;20632;-79
2022/11/19 12:30:04;;;;;;;4.50;3.63;;;;;;;;;;5113133;28;20206;-80
2022/11/19 12:32:57;;;;;;;8.47;6.63;;;;;;;;;;5113056;28;20237;-79
2022/11/19 12:35:44;;;;;;;6.50;5.07;;;;;;;;;;5112822;28;20191;-79
2022/11/19 12:38:36;;;;;;;5.80;4.90;;;;;;;;;;5113150;28;20199;-80
2022/11/19 12:41:23;;;;;;;10.60;8.50;;;;;;;;;;5099918;28;20815;-79
2022/11/19 12:43:55;;;;;;;9.60;8.40;;;;;;;;;;5112907;28;20677;-80
2022/11/19 12:46:38;;;;;;;11.53;8.53;;;;;;;;;;5112915;28;20195;-80
2022/11/19 12:49:35;;;;;;;7.17;4.60;;;;;;;;;;5112808;28;20202;-80
2022/11/19 12:52:22;;;;;;;19.93;12.53;;;;;;;;;;5070085;28;20231;-80
2022/11/19 12:54:56;;;;;;;17.20;12.50;;;;;;;;;;5102593;28;20213;-79
2022/11/19 12:57:34;;;;;;;13.73;9.73;;;;;;;;;;5103355;28;20221;-79
2022/11/19 13:00:09;;;;;;;12.63;9.67;;;;;;;;;;5110952;28;20199;-79
2022/11/19 13:02:42;;;;;;;15.63;10.33;;;;;;;;;;5111779;28;20219;-80
2022/11/19 13:05:15;;;;;;;9.50;6.40;;;;;;;;;;5107081;28;20199;-79
2022/11/19 13:07:45;;;;;;;8.33;6.63;;;;;;;;;;5093324;28;20215;-80
2022/11/19 13:10:15;;;;;;;8.20;7.50;;;;;;;;;;5112215;28;20199;-80
2022/11/19 13:12:45;;;;;;;12.20;7.93;;;;;;;;;;5112027;28;20674;-80
2022/11/19 13:15:17;;;;;;;8.17;7.43;;;;;;;;;;5105839;28;20257;-80
2022/11/19 13:17:47;;;;;;;5.40;4.67;;;;;;;;;;5104918;28;20701;-80
2022/11/19 13:20:20;;;;;;;6.10;4.13;;;;;;;;;;5102358;28;20235;-80
2022/11/19 13:22:48;;;;;;;4.70;4.30;;;;;;;;;;5112005;28;20205;-80
2022/11/19 13:25:20;;;;;;;5.73;4.67;;;;;;;;;;5111595;28;20196;-80
2022/11/19 13:27:48;;;;;;;6.90;5.20;;;;;;;;;;5112341;28;20588;-80
2022/11/19 13:30:19;;;;;;;4.43;3.60;;;;;;;;;;5111826;28;20215;-80
2022/11/19 13:32:51;;;;;;;29.53;21.27;;;;;;;;;;5112247;28;20226;-80
2022/11/19 13:35:21;;;;;;;29.87;21.80;;;;;;;;;;5111763;28;20199;-80
2022/11/19 13:37:54;;;;;;;17.13;15.73;;;;;;;;;;5112076;28;20203;-79
2022/11/19 13:40:25;;;;;;;5.60;5.20;;;;;;;;;;5111355;28;20207;-79
2022/11/19 13:45:39;;;;;;;4.67;4.13;;;;;;;;;;5111817;28;20225;-79
2022/11/19 13:48:13;;;;;;;12.20;8.00;;;;;;;;;;5111380;28;20211;-79
2022/11/19 13:50:43;;;;;;;10.60;5.03;;;;;;;;;;5111392;28;20199;-78
2022/11/19 13:53:15;;;;;;;33.53;19.97;;;;;;;;;;5111913;28;20227;-78
2022/11/19 13:55:43;;;;;;;19.67;10.13;;;;;;;;;;5111603;28;20210;-78
2022/11/19 13:58:17;;;;;;;11.07;8.63;;;;;;;;;;5111775;28;20256;-78
2022/11/19 14:01:18;;;;;;;9.77;7.60;;;;;;;;;;5111358;28;20215;-79
2022/11/19 14:03:57;;;;;;;9.13;7.83;;;;;;;;;;5111359;28;20589;-78
2022/11/19 14:06:36;;;;;;;5.10;4.60;;;;;;;;;;5111165;28;20224;-78
2022/11/19 14:09:19;;;;;;;5.00;4.50;;;;;;;;;;5110842;28;20203;-78
2022/11/19 14:12:30;;;;;;;8.87;5.07;;;;;;;;;;5110996;28;20215;-78
2022/11/19 14:27:42;;;;;;;11.17;6.63;;;;;;;;;;5111069;28;20210;-78
2022/11/19 14:30:14;;;;;;;20.33;12.57;;;;;;;;;;5111000;28;20203;-78
2022/11/19 14:32:45;;;;;;;22.07;13.23;;;;;;;;;;5098773;28;20231;-78
2022/11/19 14:35:31;;;;;;;24.70;19.03;;;;;;;;;;5111065;28;20689;-78
2022/11/19 14:38:26;;;;;;;10.97;7.97;;;;;;;;;;5110600;28;20200;-78
2022/11/19 14:41:04;;;;;;;21.60;13.40;;;;;;;;;;5104099;28;20212;-77
2022/11/19 14:46:24;;;;;;;11.80;8.80;;;;;;;;;;5095081;28;20209;-80
2022/11/19 14:48:56;;;;;;;9.00;7.53;;;;;;;;;;5110837;28;20581;-77
2022/11/19 14:51:29;;;;;;;9.27;7.87;;;;;;;;;;5108921;28;20266;-78
2022/11/19 14:54:03;;;;;;;7.73;6.47;;;;;;;;;;5100237;28;20293;-78
2022/11/19 14:56:31;;;;;;;14.40;10.47;;;;;;;;;;5109992;28;20199;-77
2022/11/19 14:59:05;;;;;;;11.10;7.83;;;;;;;;;;5110665;28;20211;-78
2022/11/19 15:01:32;;;;;;;5.97;4.97;;;;;;;;;;5099845;28;20230;-79
2022/11/19 15:04:03;;;;;;;8.97;6.37;;;;;;;;;;5101176;28;20207;-78
2022/11/19 15:06:34;;;;;;;7.80;6.77;;;;;;;;;;5107543;28;20347;-78
2022/11/19 15:09:01;;;;;;;12.17;8.67;;;;;;;;;;5110859;28;20621;-77
2022/11/19 15:11:59;;;;;;;11.67;8.60;;;;;;;;;;5096061;28;20275;-77
2022/11/19 15:15:03;;;;;;;13.97;9.00;;;;;;;;;;5110493;28;20202;-78
2022/11/19 15:17:28;;;;;;;15.77;9.33;;;;;;;;;;5100749;28;20208;-78
2022/11/19 15:20:18;;;;;;;8.67;5.87;;;;;;;;;;5110347;28;20253;-78
2022/11/19 15:22:51;;;;;;;7.27;6.63;;;;;;;;;;5099729;28;20214;-82
2022/11/19 15:25:33;;;;;;;16.37;9.40;;;;;;;;;;5113005;28;20205;-78
2022/11/19 15:28:06;;;;;;;9.67;8.23;;;;;;;;;;5114293;28;20681;-78
2022/11/19 15:30:45;;;;;;;17.83;9.03;;;;;;;;;;5114085;28;20711;-78
2022/11/19 15:33:31;;;;;;;7.70;6.70;;;;;;;;;;5114797;28;20229;-78
2022/11/19 15:36:27;;;;;;;9.90;6.83;;;;;;;;;;5113862;28;20205;-77
2022/11/19 15:39:00;;;;;;;11.83;9.30;;;;;;;;;;5108023;28;20254;-78